Impacts METAR Board
IDs:

KSFO - San Francisco Intl, CA, US

Updated at: 2200 UTC 21 May 2022
Potential Impact None Slight Moderate High
Time 21/10Z 21/11Z 21/12Z 21/13Z 21/14Z 21/15Z 21/16Z 21/17Z 21/18Z 21/19Z 21/20Z 21/21Z 21/22Z
Temp52 52 51 51 53 58 61 63 65 69 71 66 67
Dewpt43 43 43 43 44 45 47 47 47 48 46 47 45
Altim29.84 29.85 29.86 29.87 29.89 29.91 29.92 29.93 29.93 29.93 29.93 29.94 29.94
VIS10 10 10 10 10 10 10 10 10 10 10 10 10
CIG-- -- -- -- -- -- -- -- -- -- -- -- --
CoverCLRCLRFEWFEWFEWFEWFEWFEWFEWFEWFEWFEWFEW
FltCatVFRVFRVFRVFRVFRVFRVFRVFRVFRVFRVFRVFRVFR
WX--------------------------
WDir290280270290290300350330310330300310320
WSpd6 5 4 6 6 6 5 6 11 10 14 19 14
WGst-- -- -- -- -- -- -- -- -- -- -- -- --
Raw hourly METARs
KSFO 210956Z 29006KT 10SM CLR 11/06 A2984 RMK AO2 SLP105 T01110061
KSFO 211056Z 28005KT 10SM CLR 11/06 A2985 RMK AO2 SLP108 T01110061
KSFO 211156Z 27004KT 10SM FEW180 11/06 A2986 RMK AO2 SLP111 T01060061 10128 20106 53007
KSFO 211256Z 29006KT 10SM FEW200 11/06 A2987 RMK AO2 SLP115 T01060061
KSFO 211356Z 29006KT 10SM FEW010 12/07 A2989 RMK AO2 SLP122 T01170067
KSFO 211456Z 30006KT 10SM FEW010 14/07 A2991 RMK AO2 SLP128 T01440072 53017
KSFO 211556Z 35005KT 10SM FEW011 16/08 A2992 RMK AO2 SLP131 T01610083
KSFO 211656Z 33006KT 10SM FEW011 17/08 A2993 RMK AO2 SLP133 T01720083
KSFO 211756Z 31011KT 10SM FEW013 18/08 A2993 RMK AO2 SLP134 T01830083 10189 20100 51006
KSFO 211856Z 33010KT 10SM FEW015 21/09 A2993 RMK AO2 SLP136 T02060089
KSFO 211956Z 30014KT 10SM FEW200 22/08 A2993 RMK AO2 SLP136 T02170078
KSFO 212056Z 31019KT 10SM FEW200 19/08 A2994 RMK AO2 PK WND 30026/2031 SLP138 T01890083 52004
KSFO 212156Z 32014KT 10SM FEW200 19/07 A2994 RMK AO2 PK WND 30026/2132 SLP137 T01940072



Page loaded:  22:09 UTC  |   03:09 PM Pacific  |   04:09 PM Mountain  |   05:09 PM Central  |   06:09 PM Eastern

 

ADVISORIES

FORECASTS

FORECASTS

OBSERVATIONS

USER TOOLS

ABOUT US